Jaffrey, New Hampshire
Current Conditions -  °F | °C
As of 3:52 PM on Friday 31 Oct 2014 (Local Time) from KAFN Reporting Station
Overcast Overcast  
Wind Chill: 47°   Ceiling: 5000
Heat Index: 47°   Visibility: 10mi
Dew Point: 34°   Wind: 0mph
Humidity: 61%   Direction: NA
Pressure: 29.98"   Gusts: NA
Location:  42.81°N, 72.02°W
Report Text: KAFN 311952Z AUTO 00000KT 10SM FEW030 OVC050 08/01 A2998 RMK AO2 SLP164 T00830011
Loading
Personal Weather Stations






























Interactive Weather Map New forecast layout! Learn more

10-Day Weather Forecast

Advertisements
Track Severe Weather on mobile